Data for 12/18/2005

Time Sea-Level Adjusted Pressure Absolute Pressure Temperature Relative Humidity Dew Point   
(mb) (inHg) (mb) (inHg) (C) (F) (%) (C) (F)
00:05 1024 30.24 854 25.22 -20.7 -5.3 76 -23.9 -11
00:10 1024 30.24 853 25.19 -20.4 -4.8 77 -23.5 -10.3
00:15 1024 30.24 853 25.19 -20.1 -4.3 79 -22.9 -9.3
00:20 1024 30.24 853 25.19 -20 -4.1 79 -22.7 -8.9
00:25 1024 30.24 854 25.22 -20.1 -4.2 75 -23.5 -10.3
00:30 1024 30.24 854 25.22 -19.7 -3.5 73 -23.3 -10
00:35 1024 30.24 854 25.22 -19 -2.2 73 -22.7 -8.9
00:40 1024 30.24 854 25.22 -19 -2.2 73 -22.6 -8.8
00:45 1024 30.24 854 25.22 -19 -2.3 73 -22.7 -8.9
00:50 1024 30.24 854 25.22 -19.1 -2.4 79 -21.9 -7.4
00:55 1024 30.24 853 25.19 -18.7 -1.7 79 -21.6 -6.8
01:00 1024 30.24 853 25.19 -18.8 -1.8 78 -21.7 -7.1
01:05 1024 30.24 853 25.19 -19 -2.3 78 -22 -7.6
01:10 1024 30.24 854 25.22 -19 -2.1 77 -22 -7.7
01:15 1024 30.24 854 25.22 -19 -2.2 78 -22 -7.6
01:20 1024 30.24 854 25.22 -18.8 -1.8 79 -21.5 -6.7
01:25 1024 30.24 854 25.22 -18.8 -1.8 78 -21.7 -7.1
01:30 1025 30.27 854 25.22 -19 -2.2 80 -21.6 -6.9
01:35 1025 30.27 854 25.22 -18.8 -1.9 80 -21.4 -6.6
01:40 1025 30.27 854 25.22 -18.9 -2.1 80 -21.5 -6.7
01:45 1025 30.27 854 25.22 -19.3 -2.7 81 -21.8 -7.3
01:50 1025 30.27 854 25.22 -19.7 -3.4 82 -22.1 -7.7
01:55 1025 30.27 854 25.22 -19.9 -3.9 82 -22.3 -8.1
02:00 1025 30.27 854 25.22 -20 -4.1 83 -22.2 -7.9
02:05 1025 30.27 854 25.22 -19.9 -3.9 83 -22.1 -7.9
02:10 1025 30.27 854 25.22 -19.9 -3.7 83 -22.1 -7.8
02:15 1025 30.27 854 25.22 -19.8 -3.6 83 -22 -7.6
02:20 1025 30.27 854 25.22 -19.7 -3.4 82 -22 -7.7
02:25 1025 30.27 854 25.22 -19.8 -3.7 82 -22.2 -8
02:30 1025 30.27 854 25.22 -19.9 -3.7 81 -22.3 -8.1
02:35 1025 30.27 854 25.22 -20 -4 83 -22.2 -8
02:40 1025 30.27 854 25.22 -20 -4 83 -22.3 -8.1
02:45 1025 30.27 854 25.22 -19.9 -3.9 83 -22.1 -7.9
02:50 1025 30.27 854 25.22 -19.8 -3.6 83 -22 -7.7
02:55 1025 30.27 854 25.22 -19.7 -3.5 82 -22 -7.7
03:00 1025 30.27 854 25.22 -19.7 -3.4 82 -22 -7.7
03:05 1024 30.24 854 25.22 -19.7 -3.4 82 -22 -7.6
03:10 1024 30.24 854 25.22 -19.9 -3.7 82 -22.2 -7.9
03:15 1024 30.24 854 25.22 -19.9 -3.8 82 -22.3 -8.1
03:20 1024 30.24 854 25.22 -19.8 -3.6 81 -22.2 -8
03:25 1024 30.24 854 25.22 -19.7 -3.5 82 -22.1 -7.8
03:30 1024 30.24 854 25.22 -19.8 -3.7 79 -22.6 -8.6
03:35 1024 30.24 854 25.22 -19.9 -3.7 81 -22.3 -8.2
03:40 1024 30.24 854 25.22 -19.8 -3.6 81 -22.2 -8
03:45 1024 30.24 854 25.22 -19.8 -3.6 81 -22.3 -8.1
03:50 1024 30.24 854 25.22 -19.7 -3.5 80 -22.4 -8.3
03:55 1024 30.24 854 25.22 -19.8 -3.7 81 -22.3 -8.2
04:00 1024 30.24 854 25.22 -19.7 -3.5 81 -22.3 -8.1
04:05 1024 30.24 854 25.22 -19.6 -3.2 79 -22.3 -8.2
04:10 1024 30.24 854 25.22 -19.4 -2.9 79 -22.2 -8
04:15 1025 30.27 854 25.22 -19.3 -2.8 79 -22.2 -7.9
04:20 1025 30.27 854 25.22 -19.3 -2.8 78 -22.2 -8
04:25 1025 30.27 854 25.22 -19.4 -3 78 -22.3 -8.2
04:30 1025 30.27 854 25.22 -19.8 -3.6 79 -22.5 -8.5
04:35 1025 30.27 854 25.22 -20 -4 80 -22.6 -8.6
04:40 1025 30.27 854 25.22 -20.1 -4.1 79 -22.8 -9
04:45 1025 30.27 854 25.22 -20.2 -4.4 80 -22.8 -9.1
04:50 1025 30.27 854 25.22 -20.5 -4.9 81 -23 -9.4
04:55 1025 30.27 854 25.22 -20.8 -5.4 81 -23.3 -9.9
05:00 1025 30.27 854 25.22 -21.1 -5.9 81 -23.6 -10.4
05:05 1025 30.27 854 25.22 -21.2 -6.1 81 -23.6 -10.4
05:10 1025 30.27 854 25.22 -21.2 -6.1 82 -23.5 -10.3
05:15 1025 30.27 854 25.22 -20.9 -5.7 82 -23.2 -9.8
05:20 1025 30.27 854 25.22 -20.8 -5.5 81 -23.3 -9.9
05:25 1025 30.27 854 25.22 -20.8 -5.5 81 -23.2 -9.8
05:30 1025 30.27 854 25.22 -21 -5.8 78 -23.9 -11
05:35 1025 30.27 854 25.22 -21 -5.8 80 -23.6 -10.4
05:40 1025 30.27 854 25.22 -21.2 -6.2 77 -24.3 -11.7
05:45 1025 30.27 854 25.22 -21.1 -5.9 78 -24 -11.2
05:50 1025 30.27 854 25.22 -21.7 -7 76 -24.8 -12.7
05:55 1025 30.27 854 25.22 -22.2 -8 78 -25 -13.1
06:00 1025 30.27 854 25.22 -22.1 -7.8 79 -24.9 -12.7
06:05 1025 30.27 854 25.22 -22 -7.6 79 -24.7 -12.4
06:10 1025 30.27 854 25.22 -21.6 -7 79 -24.4 -11.9
06:15 1025 30.27 854 25.22 -21.2 -6.2 81 -23.7 -10.7
06:20 1025 30.27 854 25.22 -20.9 -5.7 78 -23.9 -10.9
06:25 1025 30.27 854 25.22 -21.3 -6.4 79 -24.1 -11.4
06:30 1025 30.27 854 25.22 -21.5 -6.7 80 -24 -11.3
06:35 1025 30.27 854 25.22 -21.4 -6.4 79 -24 -11.3
06:40 1025 30.27 854 25.22 -21.5 -6.7 80 -24.2 -11.5
06:45 1025 30.27 854 25.22 -21.7 -7.1 80 -24.3 -11.8
06:50 1025 30.27 854 25.22 -21.8 -7.2 81 -24.3 -11.7
06:55 1025 30.27 854 25.22 -21.7 -7.1 80 -24.4 -11.8
07:00 1025 30.27 854 25.22 -21.7 -7 80 -24.2 -11.6
07:05 1025 30.27 854 25.22 -21.4 -6.6 80 -24 -11.2
07:10 1025 30.27 854 25.22 -21.4 -6.6 79 -24.2 -11.6
07:15 1025 30.27 854 25.22 -21.3 -6.4 78 -24.2 -11.6
07:20 1025 30.27 854 25.22 -21.4 -6.4 79 -24.1 -11.4
07:25 1025 30.27 854 25.22 -20.9 -5.7 78 -23.8 -10.9
07:30 1025 30.27 854 25.22 -20.6 -5 77 -23.6 -10.4
07:35 1025 30.27 854 25.22 -20.4 -4.7 76 -23.6 -10.4
07:40 1025 30.27 854 25.22 -21 -5.7 79 -23.7 -10.6
07:45 1025 30.27 854 25.22 -21 -5.8 79 -23.8 -10.8
07:50 1025 30.27 855 25.25 -20.9 -5.6 78 -23.7 -10.7
07:55 1025 30.27 855 25.25 -20.9 -5.6 77 -23.9 -11.1
08:00 1025 30.27 855 25.25 -20.8 -5.5 77 -23.8 -10.9
08:05 1025 30.27 855 25.25 -21.2 -6.1 77 -24.2 -11.5
08:10 1025 30.27 855 25.25 -21.7 -7 75 -24.9 -12.9
08:15 1025 30.27 855 25.25 -22.1 -7.8 78 -25.1 -13.1
08:20 1025 30.27 855 25.25 -22.2 -8 78 -25.1 -13.1
08:25 1025 30.27 855 25.25 -21.3 -6.4 78 -24.2 -11.5
08:30 1025 30.27 854 25.22 -20.6 -5 74 -24.1 -11.4
08:35 1025 30.27 854 25.22 -20.5 -4.8 73 -24.1 -11.4
08:40 1025 30.27 855 25.25 -20.5 -5 73 -24.2 -11.6
08:45 1025 30.27 854 25.22 -20.4 -4.7 72 -24.1 -11.4
08:50 1025 30.27 855 25.25 -20.5 -4.8 72 -24.3 -11.8
08:55 1025 30.27 855 25.25 -20.5 -4.8 72 -24.3 -11.7
09:00 1025 30.27 855 25.25 -20.4 -4.8 72 -24.3 -11.8
09:05 1025 30.27 855 25.25 -20.4 -4.7 71 -24.4 -12
09:10 1025 30.27 855 25.25 -20.5 -4.9 72 -24.3 -11.8
09:15 1025 30.27 855 25.25 -20.3 -4.5 72 -24.1 -11.4
09:20 1026 30.3 855 25.25 -20.1 -4.1 72 -23.9 -11
09:25 1026 30.3 855 25.25 -19.7 -3.4 71 -23.7 -10.7
09:30 1026 30.3 855 25.25 -19 -2.2 69 -23.4 -10.1
09:35 1026 30.3 855 25.25 -18.4 -1.1 67 -23.1 -9.6
09:40 1026 30.3 855 25.25 -17.6 0.3 65 -22.7 -8.8
09:45 1026 30.3 855 25.25 -16.9 1.6 61 -22.7 -8.9
09:50 1026 30.3 855 25.25 -17.1 1.3 62 -22.7 -8.9
09:55 1026 30.3 855 25.25 -16.6 2.2 60 -22.6 -8.8
10:00 1026 30.3 855 25.25 -16.1 3.1 59 -22.3 -8.1
10:05 1026 30.3 855 25.25 -15.5 4.1 57 -22.3 -8.1
10:10 1026 30.3 855 25.25 -15.5 4.1 57 -22.3 -8.1
10:15 1026 30.3 855 25.25 -16 3.3 58 -22.4 -8.4
10:20 1026 30.3 855 25.25 -16.3 2.8 60 -22.4 -8.3
10:25 1026 30.3 855 25.25 -15.5 4 58 -22 -7.7
10:30 1026 30.3 855 25.25 -15 5 57 -21.7 -7
10:35 1026 30.3 855 25.25 -15.2 4.7 56 -22.1 -7.8
10:40 1026 30.3 855 25.25 -15.4 4.4 57 -22.1 -7.8
10:45 1026 30.3 855 25.25 -15.6 4 58 -22.1 -7.8
10:50 1026 30.3 855 25.25 -15.4 4.3 57 -22.2 -7.9
10:55 1026 30.3 855 25.25 -15.1 4.9 56 -22 -7.7
11:00 1026 30.3 855 25.25 -14.6 5.7 55 -21.7 -7
11:05 1026 30.3 855 25.25 -14.5 5.9 55 -21.7 -7.1
11:10 1026 30.3 855 25.25 -14.7 5.5 55 -21.9 -7.5
11:15 1026 30.3 855 25.25 -15 5 59 -21.2 -6.2
11:20 1025 30.27 855 25.25 -14.6 5.6 58 -21.3 -6.3
11:25 1025 30.27 855 25.25 -14.1 6.7 56 -21.1 -6
11:30 1025 30.27 855 25.25 -14 6.8 57 -20.7 -5.3
11:35 1025 30.27 855 25.25 -14.6 5.7 61 -20.6 -5.1
11:40 1025 30.27 855 25.25 -14.6 5.6 59 -21 -5.7
11:45 1025 30.27 854 25.22 -13.8 7.1 58 -20.5 -4.9
11:50 1025 30.27 854 25.22 -13.9 7 58 -20.5 -4.9
11:55 1025 30.27 854 25.22 -14.2 6.4 60 -20.4 -4.7
12:00 1025 30.27 854 25.22 -13.8 7.2 57 -20.5 -4.9
12:05 1025 30.27 854 25.22 -13.2 8.2 56 -20.3 -4.5
12:10 1025 30.27 854 25.22 -13 8.5 54 -20.5 -4.8
12:15 1025 30.27 854 25.22 -12.7 9.1 55 -20.1 -4.2
12:20 1025 30.27 854 25.22 -13.3 8.1 57 -20.1 -4.2
12:25 1025 30.27 854 25.22 -13.4 7.9 57 -20.1 -4.3
12:30 1025 30.27 854 25.22 -13.5 7.6 57 -20.4 -4.8
12:35 1025 30.27 854 25.22 -13.8 7.3 57 -20.6 -5.2
12:40 1025 30.27 854 25.22 -14 6.7 59 -20.5 -4.9
12:45 1025 30.27 854 25.22 -14.2 6.5 61 -20.2 -4.4
12:50 1025 30.27 854 25.22 -13.4 7.8 56 -20.4 -4.7
12:55 1025 30.27 854 25.22 -14.2 6.5 61 -20.1 -4.1
13:00 1024 30.24 854 25.22 -14.6 5.7 62 -20.4 -4.7
13:05 1024 30.24 854 25.22 -15.1 4.9 65 -20.3 -4.6
13:10 1024 30.24 854 25.22 -14.2 6.5 60 -20.3 -4.5
13:15 1024 30.24 854 25.22 -14.5 6 64 -19.9 -3.8
13:20 1024 30.24 854 25.22 -13.7 7.4 59 -20.1 -4.2
13:25 1024 30.24 854 25.22 -13.3 8.1 58 -19.8 -3.7
13:30 1024 30.24 853 25.19 -12.9 8.8 57 -19.8 -3.7
13:35 1024 30.24 853 25.19 -12.9 8.8 55 -20.1 -4.2
13:40 1024 30.24 853 25.19 -12.7 9.1 54 -20.2 -4.3
13:45 1024 30.24 853 25.19 -12.5 9.5 54 -20.1 -4.2
13:50 1024 30.24 853 25.19 -12.8 9 56 -19.9 -3.8
13:55 1024 30.24 853 25.19 -13.3 8.1 57 -20.2 -4.4
14:00 1024 30.24 853 25.19 -13.3 8.1 57 -20.1 -4.1
14:05 1024 30.24 853 25.19 -13.3 8 57 -20.1 -4.2
14:10 1024 30.24 853 25.19 -13.7 7.4 57 -20.6 -5
14:15 1024 30.24 853 25.19 -14.1 6.5 59 -20.6 -5.1
14:20 1024 30.24 853 25.19 -14.9 5.2 61 -20.8 -5.4
14:25 1024 30.24 853 25.19 -14.4 6.1 60 -20.6 -5.1
14:30 1024 30.24 853 25.19 -15.5 4 65 -20.6 -5.1
14:35 1024 30.24 853 25.19 -15.8 3.5 65 -20.9 -5.7
14:40 1024 30.24 853 25.19 -15.6 4 63 -21 -5.9
14:45 1024 30.24 853 25.19 -14.8 5.4 61 -20.8 -5.5
14:50 1024 30.24 854 25.22 -14.4 6.1 58 -21 -5.8
14:55 1024 30.24 854 25.22 -14.3 6.2 58 -20.8 -5.5
15:00 1024 30.24 854 25.22 -14.5 6 59 -20.9 -5.6
15:05 1024 30.24 854 25.22 -14.7 5.5 60 -20.9 -5.6
15:10 1024 30.24 854 25.22 -15 5.1 61 -21 -5.7
15:15 1024 30.24 854 25.22 -15.4 4.3 63 -21 -5.8
15:20 1024 30.24 854 25.22 -15.2 4.7 61 -21.1 -6
15:25 1024 30.24 854 25.22 -15 5 60 -21.1 -6
15:30 1024 30.24 854 25.22 -15.1 4.9 61 -21.1 -5.9
15:35 1024 30.24 854 25.22 -15.4 4.4 62 -21.1 -6
15:40 1024 30.24 853 25.19 -15.7 3.8 62 -21.4 -6.5
15:45 1024 30.24 853 25.19 -15.7 3.7 63 -21.2 -6.2
15:50 1024 30.24 853 25.19 -15.5 4.1 63 -21.1 -6
15:55 1024 30.24 853 25.19 -16 3.3 64 -21.2 -6.2
16:00 1024 30.24 853 25.19 -15.8 3.6 64 -21.2 -6.2
16:05 1024 30.24 853 25.19 -15.9 3.5 63 -21.3 -6.4
16:10 1024 30.24 853 25.19 -15.8 3.6 64 -21.1 -6
16:15 1024 30.24 853 25.19 -15.5 4.1 63 -21 -5.8
16:20 1024 30.24 853 25.19 -15.7 3.7 64 -21.1 -6
16:25 1024 30.24 853 25.19 -16.1 3 65 -21.3 -6.4
16:30 1024 30.24 853 25.19 -16.4 2.6 67 -21.2 -6.1
16:35 1024 30.24 853 25.19 -16.7 2 68 -21.3 -6.4
16:40 1024 30.24 853 25.19 -17 1.4 70 -21.3 -6.4
16:45 1024 30.24 853 25.19 -17.2 1.1 69 -21.5 -6.7
16:50 1024 30.24 853 25.19 -17.6 0.4 72 -21.5 -6.8
16:55 1024 30.24 853 25.19 -17.6 0.4 71 -21.7 -7
17:00 1024 30.24 853 25.19 -18 -0.4 73 -21.7 -7.1
17:05 1024 30.24 853 25.19 -18 -0.3 71 -22.1 -7.8
17:10 1024 30.24 853 25.19 -18.6 -1.4 74 -22.1 -7.7
17:15 1024 30.24 853 25.19 -18.9 -2.1 75 -22.3 -8.1
17:20 1024 30.24 853 25.19 -19.5 -3 77 -22.5 -8.6
17:25 1024 30.24 853 25.19 -19.5 -3.1 77 -22.5 -8.6
17:30 1023 30.21 853 25.19 -19.6 -3.2 78 -22.4 -8.4
17:35 1023 30.21 853 25.19 -19.2 -2.6 78 -22.2 -7.9
17:40 1023 30.21 853 25.19 -18.8 -1.8 77 -21.9 -7.4
17:45 1024 30.24 853 25.19 -18.6 -1.4 75 -21.9 -7.5
17:50 1024 30.24 853 25.19 -18.6 -1.5 75 -22 -7.7
17:55 1024 30.24 853 25.19 -18.8 -1.9 76 -22.1 -7.7
18:00 1023 30.21 853 25.19 -19.1 -2.4 76 -22.3 -8.2
18:05 1024 30.24 853 25.19 -19.2 -2.5 76 -22.4 -8.3
18:10 1023 30.21 853 25.19 -18.8 -1.8 74 -22.4 -8.3
18:15 1024 30.24 853 25.19 -19 -2.2 76 -22.2 -7.9
18:20 1024 30.24 853 25.19 -19.1 -2.4 76 -22.4 -8.3
18:25 1024 30.24 853 25.19 -19.3 -2.7 76 -22.5 -8.5
18:30 1024 30.24 853 25.19 -19.5 -3 78 -22.4 -8.3
18:35 1024 30.24 853 25.19 -19.6 -3.3 80 -22.2 -7.9
18:40 1024 30.24 853 25.19 -19.6 -3.2 80 -22.1 -7.9
18:45 1024 30.24 853 25.19 -19.8 -3.6 80 -22.4 -8.3
18:50 1024 30.24 853 25.19 -20 -3.9 80 -22.6 -8.8
18:55 1024 30.24 853 25.19 -20.1 -4.1 79 -22.8 -9
19:00 1024 30.24 853 25.19 -19.9 -3.8 79 -22.6 -8.8
19:05 1024 30.24 853 25.19 -19.8 -3.7 80 -22.4 -8.4
19:10 1024 30.24 853 25.19 -19.8 -3.7 80 -22.4 -8.3
19:15 1024 30.24 853 25.19 -19.8 -3.7 81 -22.3 -8.1
19:20 1024 30.24 853 25.19 -19.6 -3.2 81 -22.1 -7.8
19:25 1024 30.24 853 25.19 -19.8 -3.7 82 -22.2 -8
19:30 1024 30.24 853 25.19 -19.9 -3.8 81 -22.3 -8.2
19:35 1024 30.24 853 25.19 -20.1 -4.1 83 -22.3 -8.1
19:40 1024 30.24 853 25.19 -20 -4 83 -22.2 -8
19:45 1024 30.24 853 25.19 -20 -4 83 -22.2 -8
19:50 1024 30.24 853 25.19 -19.8 -3.7 80 -22.4 -8.4
19:55 1024 30.24 853 25.19 -19.8 -3.7 80 -22.4 -8.4
20:00 1024 30.24 853 25.19 -19.9 -3.8 82 -22.2 -8
20:05 1024 30.24 853 25.19 -20.1 -4.1 85 -22 -7.6
20:10 1024 30.24 853 25.19 -20.3 -4.6 84 -22.4 -8.3
20:15 1024 30.24 853 25.19 -20.6 -5 85 -22.5 -8.4
20:20 1024 30.24 853 25.19 -20.2 -4.4 84 -22.2 -8
20:25 1024 30.24 853 25.19 -20.2 -4.4 86 -22 -7.6
20:30 1024 30.24 853 25.19 -19.6 -3.3 81 -22.1 -7.8
20:35 1024 30.24 853 25.19 -19.8 -3.6 81 -22.3 -8.1
20:40 1024 30.24 853 25.19 -20.3 -4.5 81 -22.7 -8.9
20:45 1024 30.24 853 25.19 -20.4 -4.7 83 -22.5 -8.5
20:50 1024 30.24 853 25.19 -20.1 -4.1 83 -22.2 -8
20:55 1024 30.24 853 25.19 -19.8 -3.6 83 -22 -7.7
21:00 1024 30.24 853 25.19 -19.7 -3.4 82 -22 -7.7
21:05 1024 30.24 853 25.19 -19.5 -3.2 81 -22 -7.6
21:10 1024 30.24 853 25.19 -19.5 -3.2 81 -22 -7.6
21:15 1024 30.24 853 25.19 -19.5 -3.1 80 -22.1 -7.7
21:20 1024 30.24 853 25.19 -19.4 -3 81 -21.9 -7.5
21:25 1024 30.24 853 25.19 -19.2 -2.6 79 -22 -7.6
21:30 1024 30.24 853 25.19 -19.4 -2.9 78 -22.3 -8.2
21:35 1024 30.24 853 25.19 -19.7 -3.4 79 -22.4 -8.3
21:40 1024 30.24 853 25.19 -19.8 -3.6 79 -22.5 -8.5
21:45 1024 30.24 853 25.19 -19.4 -2.9 78 -22.3 -8.2
21:50 1024 30.24 853 25.19 -19.3 -2.7 79 -22.1 -7.9
21:55 1024 30.24 853 25.19 -19.3 -2.7 79 -22 -7.6
22:00 1024 30.24 853 25.19 -19.4 -3 79 -22.2 -7.9
22:05 1024 30.24 853 25.19 -19.7 -3.5 81 -22.2 -8
22:10 1024 30.24 853 25.19 -19.8 -3.6 80 -22.4 -8.3
22:15 1024 30.24 853 25.19 -19.7 -3.4 79 -22.4 -8.4
22:20 1024 30.24 853 25.19 -19.7 -3.5 81 -22.2 -8
22:25 1024 30.24 853 25.19 -19.7 -3.5 77 -22.8 -9.1
22:30 1024 30.24 853 25.19 -20.4 -4.6 77 -23.4 -10.1
22:35 1024 30.24 853 25.19 -20.3 -4.5 82 -22.6 -8.7
22:40 1024 30.24 853 25.19 -19.7 -3.5 83 -22 -7.5
22:45 1024 30.24 853 25.19 -19.3 -2.7 82 -21.6 -7
22:50 1024 30.24 853 25.19 -19.1 -2.4 75 -22.5 -8.4
22:55 1024 30.24 853 25.19 -19.7 -3.5 81 -22.2 -7.9
23:00 1024 30.24 853 25.19 -20 -4 81 -22.5 -8.4
23:05 1024 30.24 853 25.19 -20.1 -4.2 83 -22.3 -8.2
23:10 1024 30.24 853 25.19 -20.3 -4.6 82 -22.7 -8.8
23:15 1024 30.24 853 25.19 -20.5 -4.9 82 -22.8 -9
23:20 1024 30.24 853 25.19 -20.6 -5.1 83 -22.8 -9.1
23:25 1024 30.24 853 25.19 -20.6 -5.2 83 -22.8 -9.1
23:30 1024 30.24 853 25.19 -20.7 -5.3 84 -22.7 -8.9
23:35 1024 30.24 853 25.19 -20.7 -5.2 85 -22.5 -8.5
23:40 1024 30.24 853 25.19 -20.4 -4.8 84 -22.5 -8.5
23:45 1024 30.24 853 25.19 -20.6 -5 85 -22.5 -8.6
23:50 1024 30.24 853 25.19 -20 -3.9 86 -21.7 -7.1
23:55 1024 30.24 853 25.19 -19.3 -2.7 85 -21.2 -6.2
24:00 1024 30.24 853 25.19 -19.3 -2.7 85 -21.2 -6.1